sensor_id;sensor_type;location;lat;lon;timestamp;P1;durP1;ratioP1;P2;durP2;ratioP2
16662;SDS011;8445;51.270;9.434;2022-12-10T00:00:45;18.83;;;13.47;;
16662;SDS011;8445;51.270;9.434;2022-12-10T00:03:10;15.63;;;12.23;;
16662;SDS011;8445;51.270;9.434;2022-12-10T00:05:36;16.23;;;12.80;;
16662;SDS011;8445;51.270;9.434;2022-12-10T00:08:01;16.63;;;12.83;;
16662;SDS011;8445;51.270;9.434;2022-12-10T00:10:27;17.10;;;12.83;;
16662;SDS011;8445;51.270;9.434;2022-12-10T00:12:52;17.03;;;12.63;;
16662;SDS011;8445;51.270;9.434;2022-12-10T00:15:18;18.77;;;13.30;;
16662;SDS011;8445;51.270;9.434;2022-12-10T00:17:43;16.97;;;12.57;;
16662;SDS011;8445;51.270;9.434;2022-12-10T00:20:09;17.60;;;12.83;;
16662;SDS011;8445;51.270;9.434;2022-12-10T00:22:34;16.67;;;12.07;;
16662;SDS011;8445;51.270;9.434;2022-12-10T00:25:03;14.17;;;10.70;;
16662;SDS011;8445;51.270;9.434;2022-12-10T00:27:30;14.73;;;11.73;;
16662;SDS011;8445;51.270;9.434;2022-12-10T00:29:58;15.03;;;11.73;;
16662;SDS011;8445;51.270;9.434;2022-12-10T00:32:28;15.10;;;11.80;;
16662;SDS011;8445;51.270;9.434;2022-12-10T00:34:54;12.30;;;9.70;;
16662;SDS011;8445;51.270;9.434;2022-12-10T00:37:20;14.50;;;11.50;;
16662;SDS011;8445;51.270;9.434;2022-12-10T00:39:45;14.57;;;11.40;;
16662;SDS011;8445;51.270;9.434;2022-12-10T00:42:11;14.93;;;11.60;;
16662;SDS011;8445;51.270;9.434;2022-12-10T00:44:36;16.50;;;11.47;;
16662;SDS011;8445;51.270;9.434;2022-12-10T00:47:02;14.97;;;11.30;;
16662;SDS011;8445;51.270;9.434;2022-12-10T00:49:27;15.87;;;12.10;;
16662;SDS011;8445;51.270;9.434;2022-12-10T00:51:53;16.37;;;11.73;;
16662;SDS011;8445;51.270;9.434;2022-12-10T00:54:18;16.70;;;11.80;;
16662;SDS011;8445;51.270;9.434;2022-12-10T00:56:43;15.67;;;12.27;;
16662;SDS011;8445;51.270;9.434;2022-12-10T00:59:09;15.07;;;10.97;;
16662;SDS011;8445;51.270;9.434;2022-12-10T01:01:40;15.40;;;10.70;;
16662;SDS011;8445;51.270;9.434;2022-12-10T01:04:08;15.63;;;12.03;;
16662;SDS011;8445;51.270;9.434;2022-12-10T01:06:46;17.37;;;12.57;;
16662;SDS011;8445;51.270;9.434;2022-12-10T01:09:14;16.97;;;12.83;;
16662;SDS011;8445;51.270;9.434;2022-12-10T01:11:44;15.23;;;12.10;;
16662;SDS011;8445;51.270;9.434;2022-12-10T01:14:13;20.07;;;12.17;;
16662;SDS011;8445;51.270;9.434;2022-12-10T01:16:46;18.93;;;12.13;;
16662;SDS011;8445;51.270;9.434;2022-12-10T01:19:12;19.17;;;13.07;;
16662;SDS011;8445;51.270;9.434;2022-12-10T01:21:38;16.33;;;12.73;;
16662;SDS011;8445;51.270;9.434;2022-12-10T01:24:03;16.63;;;12.47;;
16662;SDS011;8445;51.270;9.434;2022-12-10T01:26:31;18.80;;;13.40;;
16662;SDS011;8445;51.270;9.434;2022-12-10T01:28:59;18.07;;;12.47;;
16662;SDS011;8445;51.270;9.434;2022-12-10T01:31:26;20.03;;;11.90;;
16662;SDS011;8445;51.270;9.434;2022-12-10T01:33:54;18.43;;;13.00;;
16662;SDS011;8445;51.270;9.434;2022-12-10T01:36:29;20.37;;;12.87;;
16662;SDS011;8445;51.270;9.434;2022-12-10T01:38:57;17.50;;;12.43;;
16662;SDS011;8445;51.270;9.434;2022-12-10T01:41:25;18.73;;;12.27;;
16662;SDS011;8445;51.270;9.434;2022-12-10T01:46:26;19.13;;;14.20;;
16662;SDS011;8445;51.270;9.434;2022-12-10T01:49:04;18.60;;;13.37;;
16662;SDS011;8445;51.270;9.434;2022-12-10T01:51:33;18.27;;;13.07;;
16662;SDS011;8445;51.270;9.434;2022-12-10T01:54:02;19.17;;;13.67;;
16662;SDS011;8445;51.270;9.434;2022-12-10T01:56:29;20.93;;;15.33;;
16662;SDS011;8445;51.270;9.434;2022-12-10T01:59:00;18.37;;;13.30;;
16662;SDS011;8445;51.270;9.434;2022-12-10T02:01:35;18.63;;;13.33;;
16662;SDS011;8445;51.270;9.434;2022-12-10T02:06:59;21.60;;;15.73;;
16662;SDS011;8445;51.270;9.434;2022-12-10T02:12:14;17.03;;;11.73;;
16662;SDS011;8445;51.270;9.434;2022-12-10T02:14:53;20.53;;;13.40;;
16662;SDS011;8445;51.270;9.434;2022-12-10T02:17:30;21.90;;;13.70;;
16662;SDS011;8445;51.270;9.434;2022-12-10T02:20:04;18.87;;;13.53;;
16662;SDS011;8445;51.270;9.434;2022-12-10T02:22:33;18.83;;;13.70;;
16662;SDS011;8445;51.270;9.434;2022-12-10T02:25:03;19.73;;;14.57;;
16662;SDS011;8445;51.270;9.434;2022-12-10T02:27:42;19.33;;;14.17;;
16662;SDS011;8445;51.270;9.434;2022-12-10T02:30:17;21.00;;;13.80;;
16662;SDS011;8445;51.270;9.434;2022-12-10T02:32:43;17.57;;;12.20;;
16662;SDS011;8445;51.270;9.434;2022-12-10T02:35:18;19.97;;;11.93;;
16662;SDS011;8445;51.270;9.434;2022-12-10T02:40:44;17.80;;;12.47;;
16662;SDS011;8445;51.270;9.434;2022-12-10T02:43:13;14.97;;;11.40;;
16662;SDS011;8445;51.270;9.434;2022-12-10T02:45:42;17.03;;;12.63;;
16662;SDS011;8445;51.270;9.434;2022-12-10T02:48:11;18.43;;;12.93;;
16662;SDS011;8445;51.270;9.434;2022-12-10T02:50:41;16.90;;;12.37;;
16662;SDS011;8445;51.270;9.434;2022-12-10T02:53:06;16.90;;;12.43;;
16662;SDS011;8445;51.270;9.434;2022-12-10T02:55:37;17.27;;;12.27;;
16662;SDS011;8445;51.270;9.434;2022-12-10T02:58:13;15.43;;;11.97;;
16662;SDS011;8445;51.270;9.434;2022-12-10T03:00:58;18.50;;;14.27;;
16662;SDS011;8445;51.270;9.434;2022-12-10T03:03:46;18.67;;;12.77;;
16662;SDS011;8445;51.270;9.434;2022-12-10T03:09:19;19.23;;;14.20;;
16662;SDS011;8445;51.270;9.434;2022-12-10T03:11:44;19.87;;;15.03;;
16662;SDS011;8445;51.270;9.434;2022-12-10T03:14:15;20.23;;;15.37;;
16662;SDS011;8445;51.270;9.434;2022-12-10T03:16:46;20.57;;;15.00;;
16662;SDS011;8445;51.270;9.434;2022-12-10T03:19:18;19.73;;;15.20;;
16662;SDS011;8445;51.270;9.434;2022-12-10T03:21:47;25.23;;;17.23;;
16662;SDS011;8445;51.270;9.434;2022-12-10T03:24:17;23.03;;;15.80;;
16662;SDS011;8445;51.270;9.434;2022-12-10T03:26:45;19.93;;;15.13;;
16662;SDS011;8445;51.270;9.434;2022-12-10T03:29:17;25.07;;;16.60;;
16662;SDS011;8445;51.270;9.434;2022-12-10T03:31:48;21.03;;;15.03;;
16662;SDS011;8445;51.270;9.434;2022-12-10T03:34:20;20.70;;;15.07;;
16662;SDS011;8445;51.270;9.434;2022-12-10T03:36:48;22.20;;;14.70;;
16662;SDS011;8445;51.270;9.434;2022-12-10T03:39:14;19.40;;;14.03;;
16662;SDS011;8445;51.270;9.434;2022-12-10T03:41:41;22.60;;;14.57;;
16662;SDS011;8445;51.270;9.434;2022-12-10T03:44:06;19.87;;;15.23;;
16662;SDS011;8445;51.270;9.434;2022-12-10T03:46:32;22.63;;;16.00;;
16662;SDS011;8445;51.270;9.434;2022-12-10T03:48:58;20.20;;;15.27;;
16662;SDS011;8445;51.270;9.434;2022-12-10T03:51:24;19.63;;;15.20;;
16662;SDS011;8445;51.270;9.434;2022-12-10T03:53:50;20.80;;;14.33;;
16662;SDS011;8445;51.270;9.434;2022-12-10T03:56:16;18.57;;;14.23;;
16662;SDS011;8445;51.270;9.434;2022-12-10T03:58:43;22.77;;;16.67;;
16662;SDS011;8445;51.270;9.434;2022-12-10T04:01:08;21.80;;;14.97;;
16662;SDS011;8445;51.270;9.434;2022-12-10T04:03:35;24.13;;;16.70;;
16662;SDS011;8445;51.270;9.434;2022-12-10T04:06:05;22.40;;;16.50;;
16662;SDS011;8445;51.270;9.434;2022-12-10T04:08:32;22.37;;;16.07;;
16662;SDS011;8445;51.270;9.434;2022-12-10T04:11:05;23.63;;;16.20;;
16662;SDS011;8445;51.270;9.434;2022-12-10T04:13:32;26.20;;;18.20;;
16662;SDS011;8445;51.270;9.434;2022-12-10T04:16:17;20.90;;;15.43;;
16662;SDS011;8445;51.270;9.434;2022-12-10T04:18:53;25.03;;;15.67;;
16662;SDS011;8445;51.270;9.434;2022-12-10T04:21:19;21.83;;;15.07;;
16662;SDS011;8445;51.270;9.434;2022-12-10T04:24:04;23.50;;;16.60;;
16662;SDS011;8445;51.270;9.434;2022-12-10T04:26:48;24.73;;;17.30;;
16662;SDS011;8445;51.270;9.434;2022-12-10T04:29:18;22.43;;;16.10;;
16662;SDS011;8445;51.270;9.434;2022-12-10T04:31:44;21.87;;;16.73;;
16662;SDS011;8445;51.270;9.434;2022-12-10T04:34:09;23.87;;;17.07;;
16662;SDS011;8445;51.270;9.434;2022-12-10T04:36:35;25.13;;;17.57;;
16662;SDS011;8445;51.270;9.434;2022-12-10T04:39:00;25.00;;;18.03;;
16662;SDS011;8445;51.270;9.434;2022-12-10T04:41:26;24.97;;;17.73;;
16662;SDS011;8445;51.270;9.434;2022-12-10T04:43:52;20.40;;;15.70;;
16662;SDS011;8445;51.270;9.434;2022-12-10T04:46:17;21.70;;;15.70;;
16662;SDS011;8445;51.270;9.434;2022-12-10T04:48:43;22.53;;;15.27;;
16662;SDS011;8445;51.270;9.434;2022-12-10T04:51:08;23.03;;;15.13;;
16662;SDS011;8445;51.270;9.434;2022-12-10T04:53:34;22.43;;;15.90;;
16662;SDS011;8445;51.270;9.434;2022-12-10T04:55:59;21.73;;;15.17;;
16662;SDS011;8445;51.270;9.434;2022-12-10T04:58:26;22.47;;;15.23;;
16662;SDS011;8445;51.270;9.434;2022-12-10T05:01:02;24.27;;;15.60;;
16662;SDS011;8445;51.270;9.434;2022-12-10T05:03:29;23.53;;;15.27;;
16662;SDS011;8445;51.270;9.434;2022-12-10T05:05:54;20.67;;;14.43;;
16662;SDS011;8445;51.270;9.434;2022-12-10T05:08:20;18.33;;;14.20;;
16662;SDS011;8445;51.270;9.434;2022-12-10T05:10:45;20.27;;;15.10;;
16662;SDS011;8445;51.270;9.434;2022-12-10T05:13:11;22.90;;;15.63;;
16662;SDS011;8445;51.270;9.434;2022-12-10T05:15:39;23.77;;;15.33;;
16662;SDS011;8445;51.270;9.434;2022-12-10T05:18:05;23.23;;;15.60;;
16662;SDS011;8445;51.270;9.434;2022-12-10T05:20:30;24.50;;;17.63;;
16662;SDS011;8445;51.270;9.434;2022-12-10T05:22:56;25.40;;;16.73;;
16662;SDS011;8445;51.270;9.434;2022-12-10T05:25:40;24.60;;;16.27;;
16662;SDS011;8445;51.270;9.434;2022-12-10T05:28:21;24.10;;;16.17;;
16662;SDS011;8445;51.270;9.434;2022-12-10T05:30:50;24.73;;;16.27;;
16662;SDS011;8445;51.270;9.434;2022-12-10T05:33:17;25.53;;;15.87;;
16662;SDS011;8445;51.270;9.434;2022-12-10T05:35:43;29.30;;;18.10;;
16662;SDS011;8445;51.270;9.434;2022-12-10T05:38:09;26.17;;;19.10;;
16662;SDS011;8445;51.270;9.434;2022-12-10T05:40:36;27.30;;;18.67;;
16662;SDS011;8445;51.270;9.434;2022-12-10T05:43:02;28.00;;;18.23;;
16662;SDS011;8445;51.270;9.434;2022-12-10T05:45:28;26.33;;;18.63;;
16662;SDS011;8445;51.270;9.434;2022-12-10T05:47:54;27.07;;;19.20;;
16662;SDS011;8445;51.270;9.434;2022-12-10T05:50:19;28.23;;;19.53;;
16662;SDS011;8445;51.270;9.434;2022-12-10T05:52:46;27.00;;;19.07;;
16662;SDS011;8445;51.270;9.434;2022-12-10T05:55:11;26.67;;;18.33;;
16662;SDS011;8445;51.270;9.434;2022-12-10T05:57:37;29.27;;;20.00;;
16662;SDS011;8445;51.270;9.434;2022-12-10T06:00:03;30.63;;;19.60;;
16662;SDS011;8445;51.270;9.434;2022-12-10T06:02:37;31.80;;;20.63;;
16662;SDS011;8445;51.270;9.434;2022-12-10T06:05:03;29.97;;;19.83;;
16662;SDS011;8445;51.270;9.434;2022-12-10T06:07:29;36.17;;;22.93;;
16662;SDS011;8445;51.270;9.434;2022-12-10T06:09:55;30.27;;;21.07;;
16662;SDS011;8445;51.270;9.434;2022-12-10T06:12:21;31.67;;;21.80;;
16662;SDS011;8445;51.270;9.434;2022-12-10T06:14:46;31.30;;;20.60;;
16662;SDS011;8445;51.270;9.434;2022-12-10T06:17:12;34.60;;;22.10;;
16662;SDS011;8445;51.270;9.434;2022-12-10T06:19:37;34.73;;;21.53;;
16662;SDS011;8445;51.270;9.434;2022-12-10T06:22:03;30.63;;;20.50;;
16662;SDS011;8445;51.270;9.434;2022-12-10T06:24:29;32.20;;;21.10;;
16662;SDS011;8445;51.270;9.434;2022-12-10T06:26:55;35.17;;;22.37;;
16662;SDS011;8445;51.270;9.434;2022-12-10T06:29:27;34.40;;;21.53;;
16662;SDS011;8445;51.270;9.434;2022-12-10T06:31:52;30.67;;;20.90;;
16662;SDS011;8445;51.270;9.434;2022-12-10T06:34:18;34.90;;;21.90;;
16662;SDS011;8445;51.270;9.434;2022-12-10T06:36:43;31.23;;;20.33;;
16662;SDS011;8445;51.270;9.434;2022-12-10T06:39:09;32.50;;;22.07;;
16662;SDS011;8445;51.270;9.434;2022-12-10T06:41:44;30.33;;;20.23;;
16662;SDS011;8445;51.270;9.434;2022-12-10T06:44:33;33.73;;;21.10;;
16662;SDS011;8445;51.270;9.434;2022-12-10T06:46:58;31.87;;;21.63;;
16662;SDS011;8445;51.270;9.434;2022-12-10T06:49:24;30.87;;;20.27;;
16662;SDS011;8445;51.270;9.434;2022-12-10T06:51:49;29.77;;;20.20;;
16662;SDS011;8445;51.270;9.434;2022-12-10T06:54:15;30.77;;;21.30;;
16662;SDS011;8445;51.270;9.434;2022-12-10T06:56:40;30.90;;;21.77;;
16662;SDS011;8445;51.270;9.434;2022-12-10T06:59:06;33.13;;;21.03;;
16662;SDS011;8445;51.270;9.434;2022-12-10T07:01:31;33.93;;;21.00;;
16662;SDS011;8445;51.270;9.434;2022-12-10T07:03:57;33.13;;;20.67;;
16662;SDS011;8445;51.270;9.434;2022-12-10T07:06:23;33.53;;;21.50;;
16662;SDS011;8445;51.270;9.434;2022-12-10T07:08:50;35.90;;;21.80;;
16662;SDS011;8445;51.270;9.434;2022-12-10T07:11:17;34.40;;;21.03;;
16662;SDS011;8445;51.270;9.434;2022-12-10T07:13:45;34.27;;;21.07;;
16662;SDS011;8445;51.270;9.434;2022-12-10T07:16:12;31.83;;;21.93;;
16662;SDS011;8445;51.270;9.434;2022-12-10T07:18:37;36.20;;;22.77;;
16662;SDS011;8445;51.270;9.434;2022-12-10T07:21:12;37.27;;;20.70;;
16662;SDS011;8445;51.270;9.434;2022-12-10T07:23:49;32.03;;;19.97;;
16662;SDS011;8445;51.270;9.434;2022-12-10T07:26:19;33.60;;;20.33;;
16662;SDS011;8445;51.270;9.434;2022-12-10T07:28:45;34.23;;;20.60;;
16662;SDS011;8445;51.270;9.434;2022-12-10T07:31:11;35.27;;;21.07;;
16662;SDS011;8445;51.270;9.434;2022-12-10T07:33:37;36.73;;;20.57;;
16662;SDS011;8445;51.270;9.434;2022-12-10T07:36:06;33.93;;;18.90;;
16662;SDS011;8445;51.270;9.434;2022-12-10T07:38:33;30.27;;;17.83;;
16662;SDS011;8445;51.270;9.434;2022-12-10T07:41:03;32.73;;;17.97;;
16662;SDS011;8445;51.270;9.434;2022-12-10T07:43:34;36.03;;;18.83;;
16662;SDS011;8445;51.270;9.434;2022-12-10T07:46:05;30.80;;;18.33;;
16662;SDS011;8445;51.270;9.434;2022-12-10T07:48:36;32.50;;;18.80;;
16662;SDS011;8445;51.270;9.434;2022-12-10T07:51:03;33.57;;;18.90;;
16662;SDS011;8445;51.270;9.434;2022-12-10T07:53:29;30.87;;;17.30;;
16662;SDS011;8445;51.270;9.434;2022-12-10T07:55:55;32.87;;;19.37;;
16662;SDS011;8445;51.270;9.434;2022-12-10T07:58:21;31.30;;;19.13;;
16662;SDS011;8445;51.270;9.434;2022-12-10T08:00:46;34.73;;;20.00;;
16662;SDS011;8445;51.270;9.434;2022-12-10T08:03:12;30.83;;;18.27;;
16662;SDS011;8445;51.270;9.434;2022-12-10T08:05:38;31.90;;;18.80;;
16662;SDS011;8445;51.270;9.434;2022-12-10T08:08:05;31.23;;;20.03;;
16662;SDS011;8445;51.270;9.434;2022-12-10T08:10:33;34.87;;;20.20;;
16662;SDS011;8445;51.270;9.434;2022-12-10T08:12:59;31.73;;;19.67;;
16662;SDS011;8445;51.270;9.434;2022-12-10T08:15:25;32.00;;;19.20;;
16662;SDS011;8445;51.270;9.434;2022-12-10T08:17:53;32.67;;;20.67;;
16662;SDS011;8445;51.270;9.434;2022-12-10T08:20:20;30.93;;;19.57;;
16662;SDS011;8445;51.270;9.434;2022-12-10T08:22:46;34.43;;;20.07;;
16662;SDS011;8445;51.270;9.434;2022-12-10T08:25:11;31.10;;;19.57;;
16662;SDS011;8445;51.270;9.434;2022-12-10T08:27:37;31.70;;;19.67;;
16662;SDS011;8445;51.270;9.434;2022-12-10T08:30:05;32.47;;;19.43;;
16662;SDS011;8445;51.270;9.434;2022-12-10T08:32:37;29.83;;;17.50;;
16662;SDS011;8445;51.270;9.434;2022-12-10T08:35:03;30.33;;;19.60;;
16662;SDS011;8445;51.270;9.434;2022-12-10T08:37:28;28.87;;;17.73;;
16662;SDS011;8445;51.270;9.434;2022-12-10T08:39:57;29.27;;;18.70;;
16662;SDS011;8445;51.270;9.434;2022-12-10T08:42:23;29.23;;;18.17;;
16662;SDS011;8445;51.270;9.434;2022-12-10T08:44:51;29.17;;;18.50;;
16662;SDS011;8445;51.270;9.434;2022-12-10T08:47:17;30.40;;;17.30;;
16662;SDS011;8445;51.270;9.434;2022-12-10T08:49:42;29.30;;;17.53;;
16662;SDS011;8445;51.270;9.434;2022-12-10T08:52:08;27.13;;;17.87;;
16662;SDS011;8445;51.270;9.434;2022-12-10T08:54:33;28.17;;;18.00;;
16662;SDS011;8445;51.270;9.434;2022-12-10T08:56:58;30.77;;;19.43;;
16662;SDS011;8445;51.270;9.434;2022-12-10T08:59:26;28.07;;;16.77;;
16662;SDS011;8445;51.270;9.434;2022-12-10T09:01:52;29.43;;;18.20;;
16662;SDS011;8445;51.270;9.434;2022-12-10T09:04:17;30.67;;;17.17;;
16662;SDS011;8445;51.270;9.434;2022-12-10T09:06:43;28.93;;;17.77;;
16662;SDS011;8445;51.270;9.434;2022-12-10T09:09:08;26.93;;;15.83;;
16662;SDS011;8445;51.270;9.434;2022-12-10T09:11:34;28.37;;;18.17;;
16662;SDS011;8445;51.270;9.434;2022-12-10T09:14:00;29.90;;;18.70;;
16662;SDS011;8445;51.270;9.434;2022-12-10T09:16:30;29.03;;;18.17;;
16662;SDS011;8445;51.270;9.434;2022-12-10T09:18:58;30.60;;;18.10;;
16662;SDS011;8445;51.270;9.434;2022-12-10T09:21:24;28.73;;;18.30;;
16662;SDS011;8445;51.270;9.434;2022-12-10T09:23:50;31.37;;;18.20;;
16662;SDS011;8445;51.270;9.434;2022-12-10T09:26:20;33.63;;;18.97;;
16662;SDS011;8445;51.270;9.434;2022-12-10T09:28:46;30.30;;;19.57;;
16662;SDS011;8445;51.270;9.434;2022-12-10T09:31:12;29.37;;;18.73;;
16662;SDS011;8445;51.270;9.434;2022-12-10T09:33:39;30.53;;;15.30;;
16662;SDS011;8445;51.270;9.434;2022-12-10T09:36:05;34.37;;;18.77;;
16662;SDS011;8445;51.270;9.434;2022-12-10T09:38:35;30.33;;;17.83;;
16662;SDS011;8445;51.270;9.434;2022-12-10T09:41:04;28.60;;;17.07;;
16662;SDS011;8445;51.270;9.434;2022-12-10T09:48:34;32.07;;;16.07;;
16662;SDS011;8445;51.270;9.434;2022-12-10T09:51:13;33.27;;;17.77;;
16662;SDS011;8445;51.270;9.434;2022-12-10T09:53:55;30.83;;;16.80;;
16662;SDS011;8445;51.270;9.434;2022-12-10T09:56:26;29.90;;;17.87;;
16662;SDS011;8445;51.270;9.434;2022-12-10T09:58:57;35.13;;;17.93;;
16662;SDS011;8445;51.270;9.434;2022-12-10T10:01:27;31.10;;;16.47;;
16662;SDS011;8445;51.270;9.434;2022-12-10T10:03:56;34.80;;;19.33;;
16662;SDS011;8445;51.270;9.434;2022-12-10T10:06:21;34.37;;;18.07;;
16662;SDS011;8445;51.270;9.434;2022-12-10T10:08:51;32.60;;;17.63;;
16662;SDS011;8445;51.270;9.434;2022-12-10T10:11:21;33.23;;;17.37;;
16662;SDS011;8445;51.270;9.434;2022-12-10T10:13:51;34.33;;;17.30;;
16662;SDS011;8445;51.270;9.434;2022-12-10T10:16:20;32.33;;;16.50;;
16662;SDS011;8445;51.270;9.434;2022-12-10T10:18:58;32.03;;;18.07;;
16662;SDS011;8445;51.270;9.434;2022-12-10T10:21:41;34.17;;;18.20;;
16662;SDS011;8445;51.270;9.434;2022-12-10T10:24:12;27.93;;;17.07;;
16662;SDS011;8445;51.270;9.434;2022-12-10T10:26:40;27.77;;;16.27;;
16662;SDS011;8445;51.270;9.434;2022-12-10T10:29:08;28.07;;;16.97;;
16662;SDS011;8445;51.270;9.434;2022-12-10T10:31:37;26.47;;;17.13;;
16662;SDS011;8445;51.270;9.434;2022-12-10T10:34:06;28.43;;;16.60;;
16662;SDS011;8445;51.270;9.434;2022-12-10T10:36:38;31.40;;;18.77;;
16662;SDS011;8445;51.270;9.434;2022-12-10T10:39:18;24.53;;;15.47;;
16662;SDS011;8445;51.270;9.434;2022-12-10T10:41:54;28.67;;;16.53;;
16662;SDS011;8445;51.270;9.434;2022-12-10T10:44:23;25.90;;;15.77;;
16662;SDS011;8445;51.270;9.434;2022-12-10T10:46:54;26.43;;;16.20;;
16662;SDS011;8445;51.270;9.434;2022-12-10T10:49:25;25.60;;;16.20;;
16662;SDS011;8445;51.270;9.434;2022-12-10T10:52:06;24.27;;;15.50;;
16662;SDS011;8445;51.270;9.434;2022-12-10T10:54:39;24.80;;;15.30;;
16662;SDS011;8445;51.270;9.434;2022-12-10T10:57:15;24.97;;;15.50;;
16662;SDS011;8445;51.270;9.434;2022-12-10T10:59:48;22.03;;;13.70;;
16662;SDS011;8445;51.270;9.434;2022-12-10T11:05:04;22.97;;;14.20;;
16662;SDS011;8445;51.270;9.434;2022-12-10T11:07:40;20.77;;;14.73;;
16662;SDS011;8445;51.270;9.434;2022-12-10T11:10:22;22.00;;;14.53;;
16662;SDS011;8445;51.270;9.434;2022-12-10T11:12:57;19.60;;;13.50;;
16662;SDS011;8445;51.270;9.434;2022-12-10T11:15:43;22.33;;;15.57;;
16662;SDS011;8445;51.270;9.434;2022-12-10T11:21:20;20.00;;;13.90;;
16662;SDS011;8445;51.270;9.434;2022-12-10T11:23:47;20.83;;;13.83;;
16662;SDS011;8445;51.270;9.434;2022-12-10T11:26:30;23.00;;;15.33;;
16662;SDS011;8445;51.270;9.434;2022-12-10T11:29:29;18.87;;;14.23;;
16662;SDS011;8445;51.270;9.434;2022-12-10T11:40:14;17.73;;;12.33;;
16662;SDS011;8445;51.270;9.434;2022-12-10T11:48:00;16.13;;;12.30;;
16662;SDS011;8445;51.270;9.434;2022-12-10T11:50:46;16.27;;;10.73;;
16662;SDS011;8445;51.270;9.434;2022-12-10T12:01:13;17.53;;;12.10;;
16662;SDS011;8445;51.270;9.434;2022-12-10T12:09:38;15.70;;;9.90;;
16662;SDS011;8445;51.270;9.434;2022-12-10T12:15:13;18.73;;;12.97;;
16662;SDS011;8445;51.270;9.434;2022-12-10T12:17:43;19.13;;;13.07;;
16662;SDS011;8445;51.270;9.434;2022-12-10T12:20:30;20.47;;;14.23;;
16662;SDS011;8445;51.270;9.434;2022-12-10T12:23:11;18.37;;;12.03;;
16662;SDS011;8445;51.270;9.434;2022-12-10T12:25:42;17.53;;;11.83;;
16662;SDS011;8445;51.270;9.434;2022-12-10T12:30:48;15.67;;;11.67;;
16662;SDS011;8445;51.270;9.434;2022-12-10T12:33:20;14.17;;;9.60;;
16662;SDS011;8445;51.270;9.434;2022-12-10T12:36:00;12.23;;;8.63;;
16662;SDS011;8445;51.270;9.434;2022-12-10T12:38:36;11.43;;;8.77;;
16662;SDS011;8445;51.270;9.434;2022-12-10T12:45:59;15.67;;;11.20;;
16662;SDS011;8445;51.270;9.434;2022-12-10T12:53:46;14.47;;;10.77;;
16662;SDS011;8445;51.270;9.434;2022-12-10T12:56:21;14.93;;;10.67;;
16662;SDS011;8445;51.270;9.434;2022-12-10T12:58:57;15.27;;;10.93;;
16662;SDS011;8445;51.270;9.434;2022-12-10T13:04:01;17.13;;;11.43;;
16662;SDS011;8445;51.270;9.434;2022-12-10T13:06:29;13.00;;;9.07;;
16662;SDS011;8445;51.270;9.434;2022-12-10T13:11:38;11.73;;;8.70;;
16662;SDS011;8445;51.270;9.434;2022-12-10T13:16:59;13.03;;;8.57;;
16662;SDS011;8445;51.270;9.434;2022-12-10T13:19:44;11.83;;;8.50;;
16662;SDS011;8445;51.270;9.434;2022-12-10T13:22:12;10.63;;;7.43;;
16662;SDS011;8445;51.270;9.434;2022-12-10T13:25:05;11.17;;;8.30;;
16662;SDS011;8445;51.270;9.434;2022-12-10T13:27:36;8.73;;;6.83;;
16662;SDS011;8445;51.270;9.434;2022-12-10T13:42:34;6.93;;;6.07;;
16662;SDS011;8445;51.270;9.434;2022-12-10T13:47:46;11.00;;;6.47;;
16662;SDS011;8445;51.270;9.434;2022-12-10T13:50:18;7.67;;;6.33;;
16662;SDS011;8445;51.270;9.434;2022-12-10T14:03:44;10.03;;;7.93;;
16662;SDS011;8445;51.270;9.434;2022-12-10T14:06:26;12.37;;;9.20;;
16662;SDS011;8445;51.270;9.434;2022-12-10T14:09:02;10.40;;;8.33;;
16662;SDS011;8445;51.270;9.434;2022-12-10T14:11:39;11.30;;;8.70;;
16662;SDS011;8445;51.270;9.434;2022-12-10T14:14:11;12.23;;;9.30;;
16662;SDS011;8445;51.270;9.434;2022-12-10T14:16:48;12.17;;;9.00;;
16662;SDS011;8445;51.270;9.434;2022-12-10T14:19:14;14.30;;;10.00;;
16662;SDS011;8445;51.270;9.434;2022-12-10T14:21:41;16.07;;;9.50;;
16662;SDS011;8445;51.270;9.434;2022-12-10T14:24:25;13.30;;;9.03;;
16662;SDS011;8445;51.270;9.434;2022-12-10T14:26:59;11.63;;;8.47;;
16662;SDS011;8445;51.270;9.434;2022-12-10T14:29:28;15.03;;;9.77;;
16662;SDS011;8445;51.270;9.434;2022-12-10T14:31:55;15.37;;;10.00;;
16662;SDS011;8445;51.270;9.434;2022-12-10T14:34:22;15.53;;;10.93;;
16662;SDS011;8445;51.270;9.434;2022-12-10T14:36:52;16.13;;;11.17;;
16662;SDS011;8445;51.270;9.434;2022-12-10T14:39:31;13.73;;;10.93;;
16662;SDS011;8445;51.270;9.434;2022-12-10T14:42:02;13.80;;;10.33;;
16662;SDS011;8445;51.270;9.434;2022-12-10T14:44:30;16.23;;;11.03;;
16662;SDS011;8445;51.270;9.434;2022-12-10T14:47:18;15.47;;;11.37;;
16662;SDS011;8445;51.270;9.434;2022-12-10T14:49:48;15.30;;;11.33;;
16662;SDS011;8445;51.270;9.434;2022-12-10T14:52:17;16.40;;;11.87;;
16662;SDS011;8445;51.270;9.434;2022-12-10T14:54:47;17.03;;;12.13;;
16662;SDS011;8445;51.270;9.434;2022-12-10T14:57:24;19.40;;;13.47;;
16662;SDS011;8445;51.270;9.434;2022-12-10T15:00:06;22.20;;;14.97;;
16662;SDS011;8445;51.270;9.434;2022-12-10T15:02:38;21.47;;;14.40;;
16662;SDS011;8445;51.270;9.434;2022-12-10T15:05:13;19.37;;;14.97;;
16662;SDS011;8445;51.270;9.434;2022-12-10T15:07:52;19.10;;;13.97;;
16662;SDS011;8445;51.270;9.434;2022-12-10T15:10:23;21.33;;;14.63;;
16662;SDS011;8445;51.270;9.434;2022-12-10T15:12:55;22.73;;;15.30;;
16662;SDS011;8445;51.270;9.434;2022-12-10T15:15:26;23.93;;;16.30;;
16662;SDS011;8445;51.270;9.434;2022-12-10T15:18:30;23.13;;;15.93;;
16662;SDS011;8445;51.270;9.434;2022-12-10T15:21:05;22.40;;;15.40;;
16662;SDS011;8445;51.270;9.434;2022-12-10T15:23:35;20.10;;;13.67;;
16662;SDS011;8445;51.270;9.434;2022-12-10T15:28:44;20.70;;;14.50;;
16662;SDS011;8445;51.270;9.434;2022-12-10T15:33:55;20.00;;;13.70;;
16662;SDS011;8445;51.270;9.434;2022-12-10T15:36:41;21.50;;;14.37;;
16662;SDS011;8445;51.270;9.434;2022-12-10T15:39:15;19.53;;;13.10;;
16662;SDS011;8445;51.270;9.434;2022-12-10T15:44:17;20.27;;;13.70;;
16662;SDS011;8445;51.270;9.434;2022-12-10T15:46:49;20.87;;;14.57;;
16662;SDS011;8445;51.270;9.434;2022-12-10T15:49:16;19.87;;;14.40;;
16662;SDS011;8445;51.270;9.434;2022-12-10T15:51:42;18.73;;;13.90;;
16662;SDS011;8445;51.270;9.434;2022-12-10T15:54:42;21.67;;;15.17;;
16662;SDS011;8445;51.270;9.434;2022-12-10T15:57:20;19.57;;;13.20;;
16662;SDS011;8445;51.270;9.434;2022-12-10T15:59:48;21.57;;;14.47;;
16662;SDS011;8445;51.270;9.434;2022-12-10T16:05:12;18.17;;;13.13;;
16662;SDS011;8445;51.270;9.434;2022-12-10T16:07:40;20.60;;;14.87;;
16662;SDS011;8445;51.270;9.434;2022-12-10T16:10:06;18.07;;;13.63;;
16662;SDS011;8445;51.270;9.434;2022-12-10T16:12:34;18.13;;;13.40;;
16662;SDS011;8445;51.270;9.434;2022-12-10T16:15:01;19.30;;;14.57;;
16662;SDS011;8445;51.270;9.434;2022-12-10T16:17:29;18.07;;;14.20;;
16662;SDS011;8445;51.270;9.434;2022-12-10T16:19:59;17.60;;;12.77;;
16662;SDS011;8445;51.270;9.434;2022-12-10T16:22:34;19.67;;;13.20;;
16662;SDS011;8445;51.270;9.434;2022-12-10T16:25:00;17.87;;;13.17;;
16662;SDS011;8445;51.270;9.434;2022-12-10T16:27:26;18.70;;;13.40;;
16662;SDS011;8445;51.270;9.434;2022-12-10T16:29:51;19.33;;;13.77;;
16662;SDS011;8445;51.270;9.434;2022-12-10T16:32:17;16.70;;;13.20;;
16662;SDS011;8445;51.270;9.434;2022-12-10T16:34:42;14.93;;;11.37;;
16662;SDS011;8445;51.270;9.434;2022-12-10T16:37:08;15.10;;;10.97;;
16662;SDS011;8445;51.270;9.434;2022-12-10T16:39:34;16.07;;;12.07;;
16662;SDS011;8445;51.270;9.434;2022-12-10T16:42:00;17.47;;;12.40;;
16662;SDS011;8445;51.270;9.434;2022-12-10T16:44:25;14.70;;;11.57;;